Time;durP1;ratioP1;P1;durP2;ratioP2;P2;SDS_P1;SDS_P2;PMS_P1;PMS_P2;Temp;Humidity;BMP_temperature;BMP_pressure;BME280_temperature;BME280_humidity;BME280_pressure;Samples;Min_cycle;Max_cycle;Signal;HPM_P1;HPM_P2
2023/10/09 00:01:13;;;;;;;1.65;0.63;;;;;;;8.37;68.13;100597.94;5113856;28;20052;-66
2023/10/09 00:03:42;;;;;;;1.80;1.50;;;;;;;8.48;66.89;100600.69;5113746;28;20054;-66
2023/10/09 00:06:13;;;;;;;0.35;0.35;;;;;;;8.54;66.57;100595.75;5113665;28;20039;-67
2023/10/09 00:08:44;;;;;;;0.40;0.40;;;;;;;8.53;67.37;100606.75;5113864;28;20048;-66
2023/10/09 00:11:17;;;;;;;0.82;0.82;;;;;;;8.56;67.41;100589.88;5113908;28;20044;-67
2023/10/09 00:13:51;;;;;;;0.35;0.35;;;;;;;8.51;67.04;100596.56;5114508;28;20050;-67
2023/10/09 00:16:32;;;;;;;1.25;1.02;;;;;;;8.54;68.00;100595.75;5113705;28;20097;-67
2023/10/09 00:19:14;;;;;;;0.52;0.52;;;;;;;8.62;67.63;100600.19;5113254;28;20389;-66
2023/10/09 00:21:43;;;;;;;0.73;0.73;;;;;;;8.73;66.77;100588.53;5113468;28;20039;-67
2023/10/09 00:24:23;;;;;;;0.28;0.28;;;;;;;8.84;66.74;100590.44;5113520;28;20048;-66
2023/10/09 00:26:55;;;;;;;0.47;0.47;;;;;;;8.80;66.90;100576.81;5113509;28;20124;-66
2023/10/09 00:29:28;;;;;;;0.30;0.30;;;;;;;8.72;66.68;100580.88;5114164;28;20054;-67
2023/10/09 00:32:04;;;;;;;0.60;0.60;;;;;;;8.85;66.66;100577.78;5113617;28;20067;-66
2023/10/09 00:34:39;;;;;;;0.40;0.40;;;;;;;9.02;65.69;100571.31;5113583;28;20059;-66
2023/10/09 00:37:16;;;;;;;0.90;0.90;;;;;;;9.00;66.15;100583.16;5113394;28;20105;-66
2023/10/09 00:39:48;;;;;;;0.30;0.30;;;;;;;8.86;65.61;100592.19;5112594;28;20052;-67
2023/10/09 00:42:27;;;;;;;0.50;0.50;;;;;;;8.73;64.58;100583.44;5113570;28;20085;-66
2023/10/09 00:44:56;;;;;;;1.55;1.02;;;;;;;8.75;65.43;100581.81;5115915;28;20473;-67
2023/10/09 00:47:33;;;;;;;0.70;0.70;;;;;;;8.77;64.06;100575.06;5116014;28;20140;-66
2023/10/09 00:50:10;;;;;;;0.40;0.40;;;;;;;8.84;64.69;100565.88;5115921;28;20040;-67
2023/10/09 00:52:43;;;;;;;0.70;0.70;;;;;;;8.96;63.88;100565.25;5117021;28;20048;-68
2023/10/09 00:55:14;;;;;;;0.60;0.60;;;;;;;9.03;63.55;100573.03;5117155;27;20493;-67
2023/10/09 00:57:56;;;;;;;1.70;1.17;;;;;;;9.15;64.14;100573.28;5117252;28;20089;-66
2023/10/09 01:00:45;;;;;;;0.40;0.40;;;;;;;9.16;63.75;100577.56;5116323;28;20047;-66
2023/10/09 01:03:22;;;;;;;0.40;0.40;;;;;;;9.23;63.05;100581.06;5115903;28;20558;-66
2023/10/09 01:05:58;;;;;;;1.75;1.17;;;;;;;9.23;63.86;100566.66;5115850;28;20050;-66
2023/10/09 01:08:43;;;;;;;0.50;0.50;;;;;;;9.29;63.25;100558.25;5116664;28;20079;-66
2023/10/09 01:11:18;;;;;;;0.35;0.35;;;;;;;9.26;63.48;100551.41;5116725;28;20047;-66
2023/10/09 01:13:54;;;;;;;0.40;0.40;;;;;;;9.20;63.57;100546.22;5116281;28;20040;-67
2023/10/09 01:16:24;;;;;;;0.60;0.60;;;;;;;9.18;62.92;100547.88;5115380;28;20489;-66
2023/10/09 01:18:57;;;;;;;0.50;0.50;;;;;;;9.04;63.29;100539.13;5115370;28;20126;-66
2023/10/09 01:21:27;;;;;;;0.57;0.57;;;;;;;8.98;63.25;100533.91;5115389;28;20117;-67
2023/10/09 01:24:07;;;;;;;1.38;0.98;;;;;;;8.94;64.06;100534.69;5115331;28;20052;-67
2023/10/09 01:26:46;;;;;;;0.47;0.47;;;;;;;8.90;65.00;100540.50;5116339;28;20508;-66
2023/10/09 01:29:19;;;;;;;0.70;0.70;;;;;;;8.96;65.63;100530.47;5115375;28;20454;-66
2023/10/09 01:31:54;;;;;;;0.57;0.55;;;;;;;9.09;65.49;100539.22;5116589;28;20048;-67
2023/10/09 01:34:38;;;;;;;3.22;2.72;;;;;;;9.05;65.88;100525.53;5115096;28;20413;-66
2023/10/09 01:37:18;;;;;;;4.18;2.15;;;;;;;9.03;65.71;100516.16;5115526;28;20044;-66
2023/10/09 01:39:51;;;;;;;0.38;0.38;;;;;;;9.07;66.40;100517.94;5114835;28;20069;-67
2023/10/09 01:42:33;;;;;;;1.02;1.02;;;;;;;9.06;66.51;100518.78;5116078;28;20048;-68
2023/10/09 01:45:15;;;;;;;0.70;0.70;;;;;;;9.03;67.70;100514.47;5116011;28;20100;-65
2023/10/09 01:47:53;;;;;;;0.52;0.52;;;;;;;9.05;66.68;100512.81;5116342;27;20055;-65
2023/10/09 01:50:24;;;;;;;0.38;0.38;;;;;;;9.01;67.14;100521.22;5116183;28;20074;-66
2023/10/09 01:52:54;;;;;;;2.38;1.45;;;;;;;8.99;66.16;100505.06;5115493;28;20066;-66
2023/10/09 01:55:33;;;;;;;1.10;1.00;;;;;;;8.88;66.41;100496.34;5116162;28;20043;-65
2023/10/09 01:58:09;;;;;;;0.77;0.77;;;;;;;8.78;66.17;100504.66;5114873;28;20382;-65
2023/10/09 02:00:48;;;;;;;0.60;0.60;;;;;;;8.73;66.12;100486.72;5114980;28;20126;-66
2023/10/09 02:03:18;;;;;;;;;;;;;;;8.70;65.25;100486.69;5116048;28;20104;-67
2023/10/09 02:05:47;;;;;;;1.27;1.08;;;;;;;8.78;65.87;100471.59;5115603;28;19920;-68
2023/10/09 02:08:21;;;;;;;0.50;0.50;;;;;;;8.91;66.15;100459.91;5115772;28;20047;-66
2023/10/09 02:10:55;;;;;;;0.45;0.45;;;;;;;8.97;65.99;100450.72;5114326;28;20455;-66
2023/10/09 02:13:29;;;;;;;0.60;0.60;;;;;;;8.88;64.96;100453.06;5115530;28;20047;-66
2023/10/09 02:16:13;;;;;;;1.35;1.00;;;;;;;8.85;65.06;100435.22;5114504;28;20044;-66
2023/10/09 02:18:56;;;;;;;0.50;0.50;;;;;;;8.77;64.45;100450.34;5115340;28;20047;-66
2023/10/09 02:21:39;;;;;;;0.38;0.38;;;;;;;8.86;64.44;100449.66;5114403;28;20066;-66
2023/10/09 02:24:12;;;;;;;0.50;0.50;;;;;;;8.90;64.85;100466.69;5113954;28;20448;-66
2023/10/09 02:29:26;;;;;;;0.25;0.25;;;;;;;9.01;64.34;100472.00;5115562;27;20104;-66
2023/10/09 02:32:00;;;;;;;0.50;0.50;;;;;;;9.02;63.76;100458.44;5113799;28;20500;-66
2023/10/09 02:34:38;;;;;;;0.68;0.68;;;;;;;9.01;63.72;100446.53;5115429;28;20051;-65
2023/10/09 02:37:11;;;;;;;0.45;0.40;;;;;;;9.14;63.38;100448.47;5113802;28;20047;-65
2023/10/09 02:39:43;;;;;;;0.50;0.50;;;;;;;9.21;63.25;100451.13;5116050;28;20075;-66
2023/10/09 02:42:23;;;;;;;0.50;0.50;;;;;;;9.29;63.34;100444.47;5113742;28;20044;-66
2023/10/09 02:44:52;;;;;;;0.60;0.60;;;;;;;9.40;63.58;100468.47;5114892;28;20101;-66
2023/10/09 02:47:29;;;;;;;0.68;0.68;;;;;;;9.34;63.66;100463.25;5114820;28;20059;-66
2023/10/09 02:50:06;;;;;;;0.30;0.30;;;;;;;9.29;63.44;100459.75;5113543;28;20131;-66
2023/10/09 02:52:40;;;;;;;0.50;0.50;;;;;;;9.27;62.66;100463.97;5113496;28;20040;-66
2023/10/09 02:55:22;;;;;;;0.38;0.38;;;;;;;9.18;63.63;100451.09;5114744;28;20043;-66
2023/10/09 02:58:04;;;;;;;0.40;0.40;;;;;;;9.13;63.19;100441.66;5113573;28;20493;-66
2023/10/09 03:00:36;;;;;;;0.82;0.82;;;;;;;9.13;63.85;100445.06;5113454;28;20040;-66
2023/10/09 03:03:07;;;;;;;0.85;0.85;;;;;;;9.04;63.78;100427.09;5113247;28;20048;-67
2023/10/09 03:05:42;;;;;;;0.50;0.50;;;;;;;9.09;64.31;100433.13;5112724;28;20051;-67
2023/10/09 03:08:12;;;;;;;0.73;0.68;;;;;;;9.13;63.90;100431.47;5114458;28;20089;-66
2023/10/09 03:10:41;;;;;;;0.52;0.52;;;;;;;9.10;64.35;100428.84;5114691;28;20390;-66
2023/10/09 03:13:14;;;;;;;1.48;1.38;;;;;;;9.17;65.15;100421.34;5114349;28;20119;-66
2023/10/09 03:15:45;;;;;;;0.40;0.40;;;;;;;9.20;65.13;100423.09;5114514;28;20039;-66
2023/10/09 03:18:14;;;;;;;0.90;0.88;;;;;;;9.23;63.94;100408.75;5114872;28;20393;-66
2023/10/09 03:20:44;;;;;;;0.50;0.50;;;;;;;9.21;64.75;100404.44;5113063;28;20142;-67
2023/10/09 03:23:15;;;;;;;0.50;0.50;;;;;;;9.15;64.17;100405.19;5113956;28;20043;-67
2023/10/09 03:25:45;;;;;;;0.37;0.37;;;;;;;9.17;64.56;100390.78;5113595;28;20031;-66
2023/10/09 03:28:15;;;;;;;0.82;0.82;;;;;;;9.17;63.75;100383.16;5114105;28;20492;-66
2023/10/09 03:30:46;;;;;;;0.57;0.57;;;;;;;9.15;64.55;100376.31;5114108;28;20045;-66
2023/10/09 03:33:16;;;;;;;0.40;0.40;;;;;;;9.11;64.88;100377.97;5114116;28;20550;-66
2023/10/09 03:35:45;;;;;;;0.50;0.50;;;;;;;9.21;64.45;100384.91;5114310;28;20538;-66
2023/10/09 03:38:17;;;;;;;0.65;0.65;;;;;;;9.18;65.65;100387.44;5113981;28;20047;-66
2023/10/09 03:40:48;;;;;;;0.32;0.32;;;;;;;9.13;66.21;100386.50;5114283;28;20061;-66
2023/10/09 03:43:19;;;;;;;0.43;0.43;;;;;;;9.11;66.22;100403.44;5114031;28;20058;-66
2023/10/09 03:45:52;;;;;;;0.40;0.40;;;;;;;9.11;66.27;100413.63;5113865;28;20074;-66
2023/10/09 03:48:25;;;;;;;0.40;0.40;;;;;;;9.16;66.88;100417.09;5114106;28;20556;-66
2023/10/09 03:51:08;;;;;;;0.63;0.63;;;;;;;9.14;67.28;100421.28;5114132;28;20401;-66
2023/10/09 03:53:39;;;;;;;1.08;0.98;;;;;;;9.14;67.32;100423.84;5113932;28;20044;-66
2023/10/09 03:56:12;;;;;;;0.45;0.45;;;;;;;9.14;67.77;100412.81;5114090;28;20046;-66
2023/10/09 03:58:44;;;;;;;0.50;0.50;;;;;;;9.19;66.78;100396.75;5113793;28;20040;-66
2023/10/09 04:01:22;;;;;;;0.70;0.70;;;;;;;9.26;67.92;100403.66;5114037;28;20051;-66
2023/10/09 04:03:55;;;;;;;1.15;1.08;;;;;;;9.31;67.27;100422.44;5114053;28;20432;-66
2023/10/09 04:06:28;;;;;;;3.92;2.60;;;;;;;9.23;66.61;100434.22;5113608;28;20101;-66
2023/10/09 04:08:58;;;;;;;2.72;1.75;;;;;;;9.22;66.44;100432.47;5113805;28;20066;-66
2023/10/09 04:11:28;;;;;;;1.38;0.73;;;;;;;9.31;66.09;100432.63;5113991;28;20439;-66
2023/10/09 04:13:59;;;;;;;1.35;0.93;;;;;;;9.42;66.20;100441.31;5113691;28;20047;-66
2023/10/09 04:16:50;;;;;;;0.30;0.30;;;;;;;9.34;65.83;100447.97;5115588;28;20067;-66
2023/10/09 04:19:22;;;;;;;0.30;0.30;;;;;;;9.40;65.66;100437.91;5118102;28;20040;-67
2023/10/09 04:21:55;;;;;;;0.40;0.40;;;;;;;9.49;65.19;100433.75;5117650;28;20105;-66
2023/10/09 04:24:24;;;;;;;0.55;0.55;;;;;;;9.51;65.36;100426.97;5117599;28;20040;-66
2023/10/09 04:26:57;;;;;;;0.32;0.32;;;;;;;9.54;65.04;100419.41;5118158;28;20043;-66
2023/10/09 04:29:27;;;;;;;2.05;0.93;;;;;;;9.41;64.11;100409.00;5117567;28;20048;-66
2023/10/09 04:32:00;;;;;;;1.35;1.30;;;;;;;9.43;64.59;100389.50;5117484;28;20060;-66
2023/10/09 04:34:34;;;;;;;0.88;0.85;;;;;;;9.49;65.13;100385.34;5117369;28;20493;-67
2023/10/09 04:37:24;;;;;;;0.82;0.82;;;;;;;9.45;64.16;100362.34;5117674;28;20039;-66
2023/10/09 04:40:10;;;;;;;;;;;;;;;9.45;64.35;100364.06;5117926;28;20108;-66
2023/10/09 04:42:46;;;;;;;0.60;0.60;;;;;;;9.51;64.15;100364.16;5117462;28;19942;-67
2023/10/09 04:45:25;;;;;;;0.90;0.50;;;;;;;9.51;64.04;100361.59;5117409;28;20155;-66
2023/10/09 04:48:06;;;;;;;0.30;0.30;;;;;;;9.41;63.88;100340.22;5117260;28;20047;-66
2023/10/09 04:55:57;;;;;;;1.33;1.23;;;;;;;9.47;65.02;100374.28;5117297;28;20047;-66
2023/10/09 04:58:27;;;;;;;0.77;0.77;;;;;;;9.43;64.94;100376.78;5117433;28;20506;-67
2023/10/09 05:03:45;;;;;;;0.57;0.57;;;;;;;9.44;64.21;100350.47;5117167;28;20054;-67
2023/10/09 05:08:54;;;;;;;0.50;0.50;;;;;;;9.44;63.95;100337.72;5115786;28;20366;-66
2023/10/09 05:14:12;;;;;;;0.50;0.50;;;;;;;9.35;64.31;100296.84;5110734;28;20081;-67
2023/10/09 05:16:54;;;;;;;2.70;1.13;;;;;;;9.25;64.61;100305.19;5116613;28;20046;-66
2023/10/09 05:19:33;;;;;;;0.63;0.63;;;;;;;9.37;65.30;100304.50;5116481;28;20043;-66
2023/10/09 05:22:09;;;;;;;0.45;0.45;;;;;;;9.47;65.48;100296.16;5116372;28;20127;-66
2023/10/09 05:27:45;;;;;;;0.40;0.40;;;;;;;9.50;66.46;100297.88;5115729;28;20093;-66
2023/10/09 05:30:25;;;;;;;0.55;0.55;;;;;;;9.54;66.01;100312.38;5116336;28;20040;-66
2023/10/09 05:32:59;;;;;;;0.47;0.47;;;;;;;9.56;66.56;100323.44;5116852;28;20580;-66
2023/10/09 05:35:39;;;;;;;1.20;0.98;;;;;;;9.59;66.79;100320.94;5116265;28;20076;-66
2023/10/09 05:38:23;;;;;;;0.60;0.60;;;;;;;9.59;66.55;100326.03;5116225;28;20039;-66
2023/10/09 05:41:04;;;;;;;0.40;0.40;;;;;;;9.59;66.55;100326.03;5116076;28;20048;-67
2023/10/09 05:46:15;;;;;;;0.50;0.50;;;;;;;9.56;66.11;100300.50;5098065;28;20061;-66
2023/10/09 06:04:55;;;;;;;0.50;0.50;;;;;;;9.90;64.44;100297.53;5116207;28;20051;-66
2023/10/09 06:07:40;;;;;;;0.40;0.40;;;;;;;9.99;63.99;100308.72;5101331;28;20087;-66
2023/10/09 06:10:19;;;;;;;0.40;0.40;;;;;;;10.05;64.06;100313.03;5095421;28;20075;-66
2023/10/09 06:12:56;;;;;;;0.50;0.50;;;;;;;10.10;64.42;100302.03;5095109;28;20123;-66
2023/10/09 06:15:50;;;;;;;0.50;0.50;;;;;;;10.06;64.31;100317.28;5096167;28;20052;-66
2023/10/09 06:34:32;;;;;;;1.02;0.80;;;;;;;9.97;63.44;100264.50;5094717;28;20044;-66
2023/10/09 06:37:17;;;;;;;0.68;0.68;;;;;;;10.03;63.98;100263.69;5095067;28;20075;-66
2023/10/09 06:42:43;;;;;;;5.77;2.73;;;;;;;9.94;64.31;100243.19;5092575;28;20132;-66
2023/10/09 06:45:16;;;;;;;3.70;1.40;;;;;;;10.04;64.36;100239.91;5094318;28;20082;-66
2023/10/09 06:47:55;;;;;;;0.50;0.50;;;;;;;9.99;63.99;100226.25;5094456;28;20035;-66
2023/10/09 06:50:26;;;;;;;0.50;0.50;;;;;;;9.96;64.49;100216.00;5096000;28;20379;-66
2023/10/09 06:53:18;;;;;;;0.38;0.38;;;;;;;9.99;64.39;100228.78;5093774;28;20072;-66
2023/10/09 06:56:05;;;;;;;3.40;1.77;;;;;;;10.03;63.22;100239.03;5094865;28;20509;-66
2023/10/09 06:58:42;;;;;;;0.38;0.38;;;;;;;10.08;63.59;100237.41;5094113;28;20040;-66
2023/10/09 07:03:59;;;;;;;1.70;1.60;;;;;;;10.26;64.44;100206.16;5114718;28;20410;-66
2023/10/09 07:09:18;;;;;;;0.40;0.40;;;;;;;10.37;65.13;100199.44;5114392;28;20388;-67
2023/10/09 07:14:41;;;;;;;0.30;0.30;;;;;;;10.39;64.02;100192.63;5093994;28;20505;-66
2023/10/09 07:17:16;;;;;;;0.40;0.40;;;;;;;10.41;63.89;100206.28;5092960;28;20455;-67
2023/10/09 07:20:08;;;;;;;0.52;0.52;;;;;;;10.46;64.14;100202.06;5099173;28;20497;-66
2023/10/09 07:22:52;;;;;;;0.45;0.45;;;;;;;10.58;64.05;100204.69;5114184;28;20060;-66
2023/10/09 07:25:41;;;;;;;0.50;0.50;;;;;;;10.64;63.66;100214.97;5114813;28;20385;-66
2023/10/09 07:30:56;;;;;;;0.70;0.70;;;;;;;10.63;63.99;100228.56;5102163;28;20691;-67
2023/10/09 07:33:33;;;;;;;0.73;0.70;;;;;;;10.65;64.22;100226.88;5093793;28;20075;-67
2023/10/09 07:36:06;;;;;;;0.70;0.70;;;;;;;10.64;64.37;100230.28;5111545;28;20439;-66
2023/10/09 07:38:36;;;;;;;0.45;0.45;;;;;;;10.49;63.67;100209.75;5095952;28;20040;-67
2023/10/09 07:43:50;;;;;;;0.70;0.70;;;;;;;10.37;61.30;100204.53;5093231;28;20044;-66
2023/10/09 07:49:00;;;;;;;1.20;0.95;;;;;;;10.37;61.61;100198.56;5093024;28;20067;-66
2023/10/09 07:51:31;;;;;;;0.30;0.30;;;;;;;10.37;61.98;100189.22;5095646;28;20077;-66
2023/10/09 07:54:06;;;;;;;0.60;0.40;;;;;;;10.43;61.26;100199.50;5098056;28;20044;-65
2023/10/09 07:56:41;;;;;;;1.33;1.23;;;;;;;10.39;60.77;100191.81;5096813;28;20044;-65
2023/10/09 07:59:11;;;;;;;0.50;0.50;;;;;;;10.35;60.93;100190.91;5098296;28;20071;-65
2023/10/09 08:01:52;;;;;;;0.60;0.60;;;;;;;10.36;61.39;100194.31;5097747;28;20040;-65
2023/10/09 08:04:37;;;;;;;0.70;0.70;;;;;;;10.42;61.13;100182.47;5097590;28;20557;-65
2023/10/09 08:07:09;;;;;;;8.77;1.02;;;;;;;10.47;60.71;100191.00;5096946;28;20067;-64
2023/10/09 08:15:34;;;;;;;0.20;0.20;;;;;;;10.53;60.20;100191.03;5106551;28;20545;-64
2023/10/09 08:18:09;;;;;;;0.35;0.35;;;;;;;10.53;60.31;100180.84;5106963;28;20039;-65
2023/10/09 08:21:19;;;;;;;0.40;0.40;;;;;;;10.58;59.75;100186.84;5117648;27;20050;-66
2023/10/09 08:23:49;;;;;;;0.35;0.35;;;;;;;10.61;59.45;100173.25;5117190;28;20083;-65
2023/10/09 08:26:31;;;;;;;0.45;0.45;;;;;;;10.68;59.00;100175.00;5117608;28;20051;-66
2023/10/09 08:31:54;;;;;;;0.60;0.60;;;;;;;10.72;58.91;100156.31;5118000;28;20054;-66
2023/10/09 08:34:25;;;;;;;0.32;0.32;;;;;;;10.77;58.55;100165.69;5117637;28;20069;-67
2023/10/09 08:36:57;;;;;;;0.80;0.80;;;;;;;10.82;59.04;100158.09;5115316;28;20511;-68
2023/10/09 08:39:33;;;;;;;0.32;0.32;;;;;;;10.83;58.71;100143.59;5097159;28;20131;-68
2023/10/09 08:42:05;;;;;;;0.40;0.40;;;;;;;10.83;59.11;100146.16;5096698;28;20079;-66
2023/10/09 08:44:36;;;;;;;0.22;0.22;;;;;;;10.83;59.15;100152.13;5096155;28;20151;-65
2023/10/09 08:47:07;;;;;;;0.60;0.60;;;;;;;10.84;58.91;100143.63;5112525;28;20048;-67
2023/10/09 08:49:37;;;;;;;0.40;0.40;;;;;;;10.89;59.20;100153.88;5117228;28;20112;-67
2023/10/09 08:52:06;;;;;;;;;;;;;;;10.94;59.26;100147.91;5117700;28;20032;-66
2023/10/09 08:54:35;;;;;;;0.60;0.60;;;;;;;10.94;59.34;100132.59;5116974;28;19920;-68
2023/10/09 08:57:09;;;;;;;0.70;0.70;;;;;;;11.00;58.71;100134.31;5115915;28;20058;-69
2023/10/09 08:59:44;;;;;;;0.50;0.50;;;;;;;10.98;59.04;100124.13;5116929;28;20067;-67
2023/10/09 09:02:15;;;;;;;0.82;0.82;;;;;;;10.98;59.58;100138.56;5096137;28;20044;-66
2023/10/09 09:04:45;;;;;;;1.03;1.03;;;;;;;10.98;59.75;100133.47;5095699;28;20493;-66
2023/10/09 09:07:28;;;;;;;0.60;0.60;;;;;;;10.99;59.68;100099.44;5112537;28;20307;-67
2023/10/09 09:10:03;;;;;;;0.38;0.38;;;;;;;11.06;59.65;100044.97;5116557;28;20044;-68
2023/10/09 09:12:37;;;;;;;0.50;0.50;;;;;;;11.16;59.56;100010.91;5116386;28;20053;-67
2023/10/09 09:15:20;;;;;;;0.50;0.50;;;;;;;11.15;60.44;99994.75;5116501;28;20044;-64
2023/10/09 09:17:50;;;;;;;0.40;0.40;;;;;;;11.25;60.36;100010.97;5096835;28;20040;-66
2023/10/09 09:20:30;;;;;;;0.60;0.60;;;;;;;11.31;60.17;99982.84;5096515;28;20040;-67
2023/10/09 09:22:58;;;;;;;;;;;;;;;11.34;59.72;99973.50;5096212;28;20048;-66
2023/10/09 09:25:47;;;;;;;1.35;1.25;;;;;;;11.37;59.69;100010.97;5097097;28;19927;-66
2023/10/09 09:28:21;;;;;;;0.30;0.30;;;;;;;11.42;59.62;99976.06;5116946;28;20070;-66
2023/10/09 09:30:53;;;;;;;0.40;0.40;;;;;;;11.53;59.14;99956.44;5116469;28;20040;-66
2023/10/09 09:33:32;;;;;;;0.45;0.45;;;;;;;11.58;58.99;100008.44;5116671;28;20050;-64
2023/10/09 09:36:03;;;;;;;0.50;0.50;;;;;;;11.48;59.10;100024.59;5110391;28;20071;-66
2023/10/09 09:38:47;;;;;;;1.48;0.85;;;;;;;11.42;58.88;100015.22;5100918;28;20048;-64
2023/10/09 09:41:24;;;;;;;0.40;0.40;;;;;;;11.39;58.70;100024.59;5100486;28;20044;-65
2023/10/09 09:43:57;;;;;;;1.25;0.85;;;;;;;11.39;58.57;100045.06;5095660;28;20055;-65
2023/10/09 09:46:33;;;;;;;0.50;0.50;;;;;;;11.45;58.49;100039.94;5094923;28;20126;-66
2023/10/09 09:49:05;;;;;;;0.20;0.20;;;;;;;11.48;58.27;100065.50;5095513;28;20083;-65
2023/10/09 09:51:34;;;;;;;0.40;0.35;;;;;;;11.53;58.55;100078.28;5103106;28;20086;-64
2023/10/09 09:54:08;;;;;;;0.30;0.30;;;;;;;11.59;58.87;100091.94;5116047;28;20051;-65
2023/10/09 09:56:41;;;;;;;0.77;0.50;;;;;;;11.64;58.68;100108.13;5115956;28;20097;-64
2023/10/09 09:59:21;;;;;;;0.50;0.50;;;;;;;11.64;58.33;100108.13;5115653;28;20481;-65
2023/10/09 10:01:58;;;;;;;14.30;0.77;;;;;;;11.67;58.33;100112.41;5110366;28;20084;-65
2023/10/09 10:04:30;;;;;;;0.50;0.50;;;;;;;11.70;58.16;100100.53;5094856;28;20500;-65
2023/10/09 10:07:04;;;;;;;0.40;0.40;;;;;;;11.68;58.41;100086.03;5095167;28;20043;-64
2023/10/09 10:09:39;;;;;;;0.50;0.50;;;;;;;11.64;58.49;100067.22;5095223;28;20105;-65
2023/10/09 10:12:11;;;;;;;0.40;0.40;;;;;;;11.65;58.79;100057.84;5106864;28;20071;-66
2023/10/09 10:14:58;;;;;;;0.50;0.50;;;;;;;11.65;59.31;100048.50;5115184;28;20044;-68
2023/10/09 10:17:30;;;;;;;0.35;0.35;;;;;;;11.61;59.38;100049.34;5115311;28;20074;-70
2023/10/09 10:22:47;;;;;;;0.20;0.20;;;;;;;11.54;60.46;100016.94;5095107;28;20097;-67
2023/10/09 10:25:42;;;;;;;0.50;0.50;;;;;;;11.54;60.71;100004.16;5094827;28;20524;-69
2023/10/09 10:31:04;;;;;;;2.30;1.20;;;;;;;11.60;62.61;100016.09;5094617;28;20054;-69
2023/10/09 10:34:06;;;;;;;0.38;0.38;;;;;;;11.60;63.60;100022.06;5103194;28;20040;-71
2023/10/09 10:36:42;;;;;;;0.30;0.30;;;;;;;11.66;64.37;100027.16;5115324;28;20032;-71
2023/10/09 10:39:19;;;;;;;0.40;0.40;;;;;;;11.65;64.98;100035.72;5113750;28;20126;-71
2023/10/09 10:41:57;;;;;;;0.30;0.30;;;;;;;11.65;65.40;100030.59;5101060;28;20412;-70
2023/10/09 10:47:22;;;;;;;0.40;0.40;;;;;;;11.60;65.97;100027.19;5094766;28;20050;-71
2023/10/09 10:49:57;;;;;;;0.60;0.60;;;;;;;11.49;65.83;100038.25;5092711;28;20036;-70
2023/10/09 10:55:48;;;;;;;7.72;2.05;;;;;;;11.47;66.38;100022.06;5094623;28;20044;-70
2023/10/09 10:58:23;;;;;;;0.50;0.50;;;;;;;11.49;67.33;99998.22;5094090;28;20440;-70
2023/10/09 11:01:11;;;;;;;0.32;0.32;;;;;;;11.35;67.29;99981.97;5113432;28;20051;-70
2023/10/09 11:06:36;;;;;;;0.88;0.80;;;;;;;11.23;67.92;99972.63;5114609;28;20126;-69
2023/10/09 11:09:22;;;;;;;0.40;0.40;;;;;;;11.23;68.39;99969.19;5112915;28;20035;-70
2023/10/09 11:11:55;;;;;;;0.35;0.35;;;;;;;11.26;68.66;99971.75;5114578;28;20047;-70
2023/10/09 11:14:24;;;;;;;0.60;0.55;;;;;;;11.41;69.01;99964.13;5114636;28;20043;-70
2023/10/09 11:16:57;;;;;;;0.70;0.70;;;;;;;11.51;70.37;99965.84;5114507;28;20367;-69
2023/10/09 11:19:31;;;;;;;0.60;0.60;;;;;;;11.54;71.50;99957.31;5113152;28;20035;-69
2023/10/09 11:25:11;;;;;;;1.48;0.57;;;;;;;11.50;72.67;99964.13;5101480;28;20481;-70
2023/10/09 11:27:50;;;;;;;3.83;0.93;;;;;;;11.54;72.78;99972.66;5093863;28;20036;-70
2023/10/09 11:30:32;;;;;;;0.40;0.40;;;;;;;11.49;72.85;99964.97;5093594;28;20059;-70
2023/10/09 11:33:13;;;;;;;1.40;1.30;;;;;;;11.47;73.71;99976.06;5092871;28;20135;-70
2023/10/09 11:35:56;;;;;;;0.77;0.77;;;;;;;11.41;74.63;99967.53;5092444;28;20737;-70
2023/10/09 11:38:26;;;;;;;0.60;0.60;;;;;;;11.30;75.69;99968.38;5093665;28;20048;-71
2023/10/09 11:43:53;;;;;;;2.33;0.65;;;;;;;11.24;75.76;99958.13;5091328;28;20284;-70
2023/10/09 11:52:09;;;;;;;1.10;0.70;;;;;;;11.19;77.15;99955.59;5093662;28;20044;-70
2023/10/09 11:54:35;;;;;;;2.58;0.82;;;;;;;11.19;77.30;99959.84;5093416;28;20036;-70
2023/10/09 11:57:05;;;;;;;;;;;;;;;11.20;77.68;99961.56;5093346;28;20050;-70
2023/10/09 11:59:37;;;;;;;0.50;0.50;;;;;;;11.23;77.84;99961.53;5092902;28;19966;-70
2023/10/09 12:02:11;;;;;;;1.23;1.13;;;;;;;11.18;77.76;99963.25;5093558;28;20070;-70
2023/10/09 12:04:42;;;;;;;1.33;1.23;;;;;;;11.17;77.45;99981.97;5093651;28;20063;-70
2023/10/09 12:07:14;;;;;;;0.88;0.88;;;;;;;11.20;78.55;99987.09;5108026;28;20466;-69
2023/10/09 12:09:43;;;;;;;1.63;1.52;;;;;;;11.18;77.78;99963.25;5101797;28;20058;-70
2023/10/09 12:12:13;;;;;;;0.40;0.40;;;;;;;11.14;77.40;99951.31;5093313;28;20094;-69
2023/10/09 12:14:42;;;;;;;0.40;0.40;;;;;;;11.17;77.51;99948.75;5093325;28;20507;-69
2023/10/09 12:17:11;;;;;;;0.40;0.40;;;;;;;11.26;77.47;99957.28;5109694;28;20058;-69
2023/10/09 12:19:40;;;;;;;0.93;0.82;;;;;;;11.30;77.49;99955.59;5113550;28;20050;-69
2023/10/09 12:22:15;;;;;;;0.87;0.87;;;;;;;11.35;77.47;99951.31;5113344;28;20043;-71
2023/10/09 12:24:45;;;;;;;0.35;0.35;;;;;;;11.18;77.51;99940.28;5101829;28;20293;-70
2023/10/09 12:27:20;;;;;;;0.70;0.70;;;;;;;11.09;77.70;99930.00;5092081;28;20470;-69
2023/10/09 12:29:49;;;;;;;0.40;0.40;;;;;;;11.03;77.86;99928.31;5093375;28;20040;-69
2023/10/09 12:32:20;;;;;;;0.40;0.40;;;;;;;11.05;77.96;99941.09;5093373;28;20038;-70
2023/10/09 12:34:50;;;;;;;0.65;0.65;;;;;;;11.03;77.76;99947.91;5093225;28;20089;-69
2023/10/09 12:37:21;;;;;;;0.70;0.60;;;;;;;10.95;78.00;99957.22;5094859;28;20417;-71
2023/10/09 12:39:55;;;;;;;0.63;0.63;;;;;;;10.92;78.05;99955.53;5097186;28;20052;-70
2023/10/09 12:42:28;;;;;;;0.77;0.68;;;;;;;10.90;78.01;99953.81;5096886;28;20417;-71
2023/10/09 12:44:57;;;;;;;0.43;0.43;;;;;;;10.84;77.76;99961.47;5108294;28;20048;-70
2023/10/09 12:47:26;;;;;;;0.65;0.65;;;;;;;10.86;77.97;99964.88;5117338;28;20549;-70
2023/10/09 12:49:56;;;;;;;0.80;0.80;;;;;;;10.86;77.70;99970.84;5117125;28;20048;-71
2023/10/09 12:52:29;;;;;;;0.30;0.30;;;;;;;10.84;78.18;99981.91;5117154;28;20400;-70
2023/10/09 12:54:58;;;;;;;0.40;0.40;;;;;;;10.77;78.04;99976.75;5116094;28;20094;-70
2023/10/09 12:57:30;;;;;;;0.80;0.80;;;;;;;10.76;78.00;99979.31;5117120;28;20042;-70
2023/10/09 12:59:58;;;;;;;0.80;0.80;;;;;;;10.73;78.19;99975.06;5117229;28;20053;-69
2023/10/09 13:02:30;;;;;;;0.60;0.60;;;;;;;10.73;77.88;99964.84;5115537;28;20519;-69
2023/10/09 13:05:03;;;;;;;1.33;0.95;;;;;;;10.71;78.40;99971.66;5116859;28;20040;-71
2023/10/09 13:07:33;;;;;;;0.60;0.60;;;;;;;10.69;78.65;99973.34;5097522;28;20047;-70
2023/10/09 13:12:42;;;;;;;0.70;0.70;;;;;;;10.71;78.75;99935.91;5111161;28;20075;-69
2023/10/09 13:15:12;;;;;;;0.60;0.60;;;;;;;10.71;78.53;99918.03;5110518;28;20039;-69
2023/10/09 13:17:42;;;;;;;0.43;0.43;;;;;;;10.63;78.59;99921.41;5110329;28;20094;-69
2023/10/09 13:20:13;;;;;;;1.43;1.33;;;;;;;10.55;79.07;99923.97;5095754;28;20040;-69
2023/10/09 13:22:44;;;;;;;0.75;0.70;;;;;;;10.60;79.09;99909.53;5095927;28;20051;-69
2023/10/09 13:25:17;;;;;;;0.45;0.45;;;;;;;10.74;79.40;99910.41;5096650;28;20132;-69
2023/10/09 13:27:50;;;;;;;0.55;0.55;;;;;;;10.74;79.83;99905.28;5095917;28;20067;-69
2023/10/09 13:30:23;;;;;;;1.63;1.33;;;;;;;10.83;79.29;99904.44;5096005;28;20101;-69
2023/10/09 13:32:52;;;;;;;6.47;0.85;;;;;;;10.81;79.45;99884.88;5096247;28;20078;-69
2023/10/09 13:35:37;;;;;;;3.85;0.85;;;;;;;10.90;79.96;99883.19;5096151;28;20129;-69
2023/10/09 13:38:09;;;;;;;1.52;1.20;;;;;;;10.91;79.65;99891.69;5095789;28;20044;-69
2023/10/09 13:40:39;;;;;;;0.68;0.68;;;;;;;10.78;79.94;99885.72;5094638;28;20059;-69
2023/10/09 13:43:16;;;;;;;1.43;1.33;;;;;;;10.83;79.76;99889.13;5095678;28;20040;-69
2023/10/09 13:45:49;;;;;;;0.80;0.80;;;;;;;10.81;80.12;99895.06;5096072;28;20368;-70
2023/10/09 13:48:20;;;;;;;0.50;0.50;;;;;;;10.74;80.37;99895.09;5095433;28;20044;-69
2023/10/09 13:50:58;;;;;;;0.85;0.85;;;;;;;10.74;80.28;99900.19;5095185;28;20052;-70
2023/10/09 13:53:28;;;;;;;0.93;0.93;;;;;;;10.75;80.11;99906.13;5095755;28;20496;-69
2023/10/09 13:55:56;;;;;;;0.60;0.60;;;;;;;10.66;80.44;99913.75;5095774;28;20074;-69
2023/10/09 13:58:27;;;;;;;0.60;0.60;;;;;;;10.61;80.32;99902.69;5094305;28;20055;-69